Weather observations for the past three days for
Lago Vista TX, Rusty Allen Airport
Metric (Imperial)
Date Time (cdt) Wind (kph) Vis. (km) Weather Sky Cond. Temperature (ºC) Relative Humidity Wind Chill (°C) Heat Index (°C) Pressure Precipitation (cm)
Air Dwpt 6 hour altimeter (cm) sea level (mb) 1 hr 3 hr 6 hr
Max. Min.
03 23:15 SE 11 16.09 Fair CLR 18.5 8.9 54% 76.43 0.0
03 22:55 S 9 16.09 Fair CLR 19.3 8.4 49% 76.43 0.0
03 22:35 S 11 16.09 Fair CLR 19.5 8 48% 76.4 0.0
03 22:15 S 9 16.09 Fair CLR 19.6 8.2 48% 76.4 0.0
03 21:55 S 9 16.09 Fair CLR 20 8.2 47% 76.43 0.0
03 21:35 S 9 16.09 Fair CLR 20.1 8.4 47% 76.43 0.0
03 21:15 S 7 16.09 Fair CLR 20.1 8.5 47% 76.4 0.0
03 20:55 S 9 16.09 Fair CLR 20.4 8.1 45% 76.4 0.0
03 20:35 S 7 16.09 Fair CLR 20.5 7.7 44% 76.38 0.0
03 20:15 S 7 16.09 Fair CLR 21 7.6 42% 76.38 0.0
03 19:55 S 7 16.09 Fair CLR 21.5 7.5 41% 76.38 0.0
03 19:35 S 7 16.09 Fair CLR 21.9 7.5 40% 76.38 0.0
03 19:20 SE 7 16.09 Fair CLR 22.4 7.1 37% 76.38 0.0
03 18:35 S 13 16.09 Fair CLR 23.6 7 34% 76.43 0.0
03 18:15 S 9 16.09 Fair CLR 23.7 6.6 33% 76.43 0.0
03 17:55 S 13 16.09 Fair CLR 23.6 5.8 32% 76.4 0.0
03 17:35 S 13 16.09 Fair CLR 24.9 6 30% 25 76.43 0.0
03 17:15 S 9 16.09 Fair CLR 25.2 6.1 29% 25 76.45 0.0
03 16:55 S 17 G 31 16.09 Fair CLR 24.8 4.8 28% 25 76.48 0.0
03 16:35 S 11 16.09 Fair CLR 25 5.7 29% 25 76.48 0.0
03 16:15 S 13 16.09 Fair CLR 25.3 5.3 28% 25 76.5 0.0
03 15:55 SE 11 G 28 16.09 Fair CLR 25.2 5.9 29% 25 76.56 0.0
03 15:35 S 13 16.09 Fair CLR 25.2 5.6 28% 25 76.56 0.0
03 15:15 SE 15 G 28 16.09 Fair CLR 25.4 5.8 28% 25 76.61 0.0
03 14:55 S 9 G 30 16.09 Fair CLR 25 5.3 28% 25 76.61 0.0
03 14:35 S 7 G 28 16.09 Fair CLR 25.7 6.1 29% 26 76.63 0.0
03 14:15 SE 13 16.09 Fair CLR 25.6 5.2 27% 26 76.66 0.0
03 13:35 S 13 16.09 Fair CLR 24.6 4.2 27% 25 76.71 0.0
03 13:15 SE 9 16.09 Fair CLR 24.3 6.3 32% 25 76.73 0.0
03 12:55 S 7 16.09 Fair CLR 24.1 6.4 24.5 12.1 32% 25 76.76 0.0
03 12:35 S 13 16.09 Fair CLR 24.4 7.2 33% 25 76.78 0.0
03 12:15 S 6 16.09 Fair CLR 24 6.8 33% 25 76.78 0.0
03 11:55 S 11 16.09 Fair CLR 23.2 7.2 36% 76.81 0.0
03 11:35 S 11 16.09 Fair CLR 23.1 8.1 38% 76.84 0.0
03 11:15 SW 7 16.09 Fair CLR 21.7 9.8 47% 76.84 0.0
03 10:55 SW 11 16.09 Fair CLR 20.7 9.9 50% 76.86 0.0
03 10:35 W 7 16.09 Fair CLR 20.5 10.2 52% 76.86 0.0
03 10:15 SW 6 16.09 Fair CLR 19.7 9.7 53% 76.86 0.0
03 09:55 W 6 16.09 Fair CLR 19 9.9 56% 76.86 0.0
03 09:35 W 9 16.09 Fair CLR 18.5 9.5 56% 76.86 0.0
03 09:15 W 11 16.09 Fair CLR 17.6 9 57% 76.84 0.0
03 08:55 W 9 16.09 Fair CLR 16.7 8.7 59% 76.84 0.0
03 08:35 W 11 16.09 Fair CLR 15.6 8.4 62% 76.81 0.0
03 08:15 W 9 16.09 Fair CLR 14.4 8.5 68% 76.81 0.0
03 07:35 W 11 16.09 Fair CLR 14.5 7.6 64% 76.78 0.0
03 07:15 W 11 16.09 Fair CLR 13.1 8.9 76% 76.78 0.0
03 06:55 W 9 16.09 Fair CLR 12.7 8.3 17 12.7 75% 76.76 0.0
03 06:35 W 11 16.09 Fair CLR 14.5 7.7 64% 76.76 0.0
03 06:15 W 9 16.09 Fair CLR 14.3 7.6 64% 76.73 0.0
03 05:55 W 9 16.09 Fair CLR 14 7.7 66% 76.73 0.0
03 05:35 W 9 16.09 Fair CLR 14 7.8 66% 76.73 0.0
03 05:15 W 6 16.09 Fair CLR 13.7 8 69% 76.71 0.0
03 04:55 Calm 16.09 Fair CLR 13.6 8.1 70% 76.68 0.0
03 04:35 Calm 16.09 Fair CLR 14.3 7.7 65% 76.71 0.0
03 04:15 W 6 16.09 Fair CLR 14.1 7.9 67% 76.68 0.0
03 03:55 Calm 16.09 Fair CLR 14.3 7.9 66% 76.68 0.0
03 03:35 Calm 16.09 Fair CLR 14.5 8 65% 76.71 0.0
03 03:15 W 6 16.09 Fair CLR 14 8.3 69% 76.71 0.0
03 02:55 Calm 16.09 Fair CLR 14.3 8.2 67% 76.71 0.0
03 02:35 W 6 16.09 Fair CLR 14.8 8.1 64% 76.73 0.0
03 02:15 W 6 16.09 Fair CLR 15.4 8.1 62% 76.73 0.0
03 01:55 W 7 16.09 Fair CLR 15.4 8.3 63% 76.73 0.0
03 01:35 W 7 16.09 Fair CLR 15.5 8.4 63% 76.76 0.0
03 01:15 W 6 16.09 Fair CLR 15.8 8.7 63% 76.76 0.0
03 00:55 Calm 16.09 Fair CLR 17 7.7 21.7 16.3 55% 76.76 0.0
03 00:35 Calm 16.09 Fair CLR 16.5 7.8 57% 76.76 0.0
03 00:15 Calm 16.09 Fair CLR 16.6 8 57% 76.76 0.0
02 23:55 S 6 16.09 Fair CLR 17.3 7.8 54% 76.76 0.0
02 23:35 SE 6 16.09 Fair CLR 17.1 7.1 52% 76.76 0.0
02 23:15 SE 7 16.09 Fair CLR 17 7.1 52% 76.76 0.0
02 22:55 SE 7 16.09 Fair CLR 16.7 7.3 54% 76.73 0.0
02 22:35 SE 7 16.09 Fair CLR 17.1 7.1 52% 76.73 0.0
02 22:15 SE 6 16.09 Fair CLR 17.2 7.2 52% 76.71 0.0
02 21:55 SE 7 16.09 Fair CLR 17.1 7.2 52% 76.68 0.0
02 21:35 E 7 16.09 Fair CLR 17.3 7.2 52% 76.68 0.0
02 21:15 E 9 16.09 Fair CLR 17.2 7.2 52% 76.66 0.0
02 20:55 E 9 16.09 Fair CLR 17.6 7.3 51% 76.63 0.0
02 20:35 SE 9 16.09 Fair CLR 17.5 6.9 50% 76.63 0.0
02 20:15 Calm 16.09 Fair CLR 17.8 6.7 48% 76.63 0.0
02 19:55 Calm 16.09 Fair CLR 19 6.7 45% 76.61 0.0
02 19:35 Calm 16.09 Fair CLR 19.8 6.6 42% 76.61 0.0
02 19:15 NE 7 16.09 Partly Cloudy SCT070 21 6.4 39% 76.61 0.0
02 18:35 NE 7 16.09 Mostly Cloudy BKN070 21.6 7.2 40% 76.61 0.0
02 18:15 E 9 16.09 Partly Cloudy SCT070 22.5 6.8 36% 76.58 0.0
02 17:55 Calm 16.09 Fair CLR 22.1 6.4 36% 76.58 0.0
02 17:35 E 7 16.09 Fair CLR 22.3 6.4 36% 76.58 0.0
02 17:15 NE 7 16.09 Fair CLR 22.8 6.3 35% 76.61 0.0
02 16:55 NE 9 16.09 Fair CLR 22.7 6.3 35% 76.61 0.0
02 16:35 E 6 16.09 Fair CLR 22.7 5.2 32% 76.61 0.0
02 16:15 NE 11 G 30 16.09 Fair CLR 23 5.9 33% 76.63 0.0
02 15:35 N 15 16.09 Fair CLR 23.1 6.5 34% 76.68 0.0
02 15:15 NE 13 16.09 Partly Cloudy SCT070 22.8 6.5 35% 76.68 0.0
02 14:55 NE 15 16.09 Partly Cloudy SCT060 22.6 8.6 41% 76.68 0.0
02 14:35 E 11 G 30 16.09 Fair CLR 22 7.5 39% 76.71 0.0
02 14:15 N 11 16.09 Fair CLR 21.7 8.1 42% 76.71 0.0
02 13:35 NE 20 G 26 16.09 Fair CLR 21.3 8.3 43% 76.73 0.0
02 13:15 N 11 16.09 Fair CLR 20.6 8 44% 76.76 0.0
02 12:55 N 13 16.09 Fair CLR 20.5 9.2 20.5 8.9 48% 76.78 0.0
02 12:35 N 11 6.44 Fair with Haze CLR 19.7 9.3 51% 76.81 0.0
02 12:15 N 6 16.09 Fair CLR 19.1 9.2 53% 76.84 0.0
02 11:55 N 7 16.09 Fair CLR 18.8 9 53% 76.84 0.0
02 11:35 N 15 16.09 Fair CLR 18.6 9.1 54% 76.84 0.0
02 11:15 NE 7 16.09 Fair CLR 18.4 9.3 56% 76.84 0.0
02 10:55 NE 9 16.09 Fair CLR 17.5 8.3 55% 76.84 0.0
02 10:35 NE 9 16.09 Fair CLR 17 8.5 58% 76.84 0.0
02 10:15 N 7 16.09 Fair CLR 16.3 8.5 60% 76.84 0.0
02 09:55 N 9 16.09 Fair CLR 15.8 9.1 65% 76.81 0.0
02 09:35 N 9 16.09 Fair CLR 15.3 9.1 67% 76.81 0.0
02 08:55 N 9 16.09 Fair CLR 13.6 9.3 75% 76.78 0.0
02 08:35 N 7 16.09 Fair CLR 12.7 9.3 80% 76.76 0.0
02 07:55 N 7 16.09 Fair CLR 11 9.1 88% 76.73 0.0
02 07:35 N 9 16.09 Fair CLR 10 8.8 92% 9 76.71 0.0
02 07:15 N 7 16.09 Fair CLR 9.2 8.7 97% 8 76.68 0.0
02 06:55 N 11 16.09 Fair CLR 8.9 8.7 10.2 8.9 99% 7 76.63 0.0
02 06:35 N 9 16.09 Fair CLR 9 8.8 99% 8 76.61 0.0
02 06:15 NW 7 16.09 Fair CLR 9.3 8.7 96% 9 76.61 0.0
02 05:55 NW 6 16.09 Fair CLR 9 8.9 99% 76.61 0.0
02 05:35 N 6 16.09 Fair CLR 9 8.8 99% 76.56 0.0
02 05:15 N 7 16.09 Fair CLR 9 9 100% 8 76.53 0.0
02 04:55 N 13 16.09 Fair CLR 9 9 100% 7 76.5 0.0
02 04:35 NE 13 16.09 Fair CLR 9 9 100% 7 76.48 0.0
02 04:15 N 15 16.09 Fair CLR 9 9 100% 7 76.48 0.0
02 03:55 NE 15 16.09 Fair CLR 9.1 9.1 100% 7 76.48 0.0
02 03:35 N 13 16.09 Fair CLR 9.1 9.1 100% 7 76.48 0.0
02 03:15 NE 13 16.09 Fair CLR 9.3 9.3 100% 8 76.48 0.0
02 02:55 N 19 16.09 Fair CLR 9.5 9.5 100% 7 76.45 0.0
02 02:35 N 13 16.09 Fair CLR 9.5 9.5 100% 8 76.48 0.0
02 02:15 N 15 16.09 Fair CLR 9.8 9.8 100% 8 76.48 0.0
02 01:55 N 17 16.09 Fair CLR 9.8 9.8 100% 8 76.48 0.0
02 01:35 NE 11 16.09 Fair CLR 9.9 9.9 100% 9 76.48 0.0
02 01:15 NE 11 16.09 Fair CLR 10 10 100% 9 76.48 0.0
02 00:55 N 11 16.09 Fair CLR 10.2 10.2 11.2 10.2 100% 76.48 0.0
02 00:35 N 9 16.09 Fair CLR 10.4 10.4 100% 76.5 0.0
02 00:15 NE 9 16.09 Fair CLR 10.5 10.5 100% 76.48 0.0
01 23:55 NE 9 16.09 Partly Cloudy SCT085 10.5 10.5 100% 76.45 0.0
01 23:35 N 7 16.09 Partly Cloudy SCT085 10.6 10.6 100% 76.45 0.0
01 23:15 N 7 16.09 Mostly Cloudy BKN085 10.9 10.9 100% 76.48 0.0
01 22:55 N 6 16.09 Mostly Cloudy BKN085 10.7 10.7 100% 76.45 0.0
01 22:35 N 7 16.09 Overcast SCT070 OVC085 11 11 100% 76.48 0.0
01 22:15 N 7 16.09 Mostly Cloudy BKN085 11 11 100% 76.45 0.0
01 21:55 NE 15 16.09 Mostly Cloudy BKN085 11 11 100% 76.43 0.0
01 21:35 NE 7 16.09 Overcast SCT029 BKN070 OVC085 11 11 100% 76.43 0.0
01 21:15 NE 11 16.09 Overcast SCT029 BKN055 OVC070 11 11 100% 76.4 0.0
01 20:55 NE 17 G 28 16.09 Overcast SCT029 OVC055 11.1 11.1 100% 76.35 0.0
01 20:35 NE 11 16.09 Drizzle OVC065 11.1 11.1 100% 76.35 0.0
01 20:15 NE 11 16.09 Rain OVC060 11.2 11.2 100% 76.3 0.0
01 19:55 NE 17 16.09 Overcast OVC060 11.2 11.2 100% 76.28 0.0
01 19:35 NE 17 G 28 16.09 Overcast OVC060 11 11 100% 76.23 0.0
01 19:15 NE 28 G 43 16.09 Mostly Cloudy SCT027 SCT036 BKN060 11 11 100% 76.2 0.0
01 18:55 NE 24 G 39 16.09 Rain SCT013 SCT020 BKN027 10.9 10.9 13.9 10.8 100% 76.17 0.0 0.03 0.53
01 18:35 NE 28 G 41 16.09 Light Rain SCT004 BKN011 OVC020 11 11 100% 76.17 0.0 0.03
01 18:15 NE 20 G 41 16.09 Overcast OVC004 11.7 11.7 100% 76.15 0.0 0.03
01 17:55 NE 20 G 37 16.09 Light Drizzle OVC004 12 12 100% 76.15 0.0 0.03
01 17:35 NE 22 G 46 16.09 Rain OVC004 12.1 12.1 100% 76.15 0.0 0.03
01 17:15 NE 22 G 37 11.27 Light Rain OVC004 12.3 12.3 100% 76.12 0.0 0.03
01 16:55 N 20 G 31 8.05 Rain OVC006 12.3 12.3 100% 76.12 0.0 0.1
01 16:35 N 13 G 28 16.09 Rain OVC006 12.3 12.3 100% 76.15 0.0 0.03
01 16:15 N 15 G 30 16.09 Rain OVC006 12.5 12.5 100% 76.1 0.0
01 15:55 NE 9 16.09 Overcast OVC006 12.8 12.8 100% 76.07 0.0 0.03 0.38
01 15:35 NE 19 G 37 16.09 Overcast OVC006 13.3 13.3 100% 76.02 0.0 0.03
01 15:15 NE 20 G 33 16.09 Light Rain OVC006 13.4 13.4 100% 76 0.0 0.03
01 14:55 NE 20 G 33 16.09 Light Rain OVC004 13.2 13.2 100% 75.95 0.0 0.1
01 14:35 NE 20 G 39 16.09 Light Rain OVC006 13.4 13.4 100% 75.97 0.0 0.1
01 14:15 N 17 G 28 16.09 Rain OVC006 13.1 13.1 100% 76.07 0.0 0.03
01 13:55 NE 20 G 39 16.09 Light Drizzle OVC004 13.4 13.4 100% 76.02 0.0 0.25
01 13:35 NE 26 G 43 16.09 Light Rain OVC004 13.4 13.4 100% 76 0.0 0.25
01 13:15 NE 19 G 28 4.83 Heavy Rain OVC004 13.5 13.5 100% 76.1 0.0 0.23
01 12:55 NW 13 3.22 Heavy Rain OVC004 13.2 13.2 14 13.1 100% 76.28 0.0 0.36 1.17
01 12:35 NE 17 G 30 11.27 Light Rain OVC004 13.2 13.2 100% 76.1 0.0 0.1
01 12:15 NE 19 G 35 11.27 Heavy Rain OVC004 13.4 13.4 100% 76.1 0.0 0.03
01 11:55 NE 17 G 30 16.09 Overcast OVC004 13.7 13.7 100% 76.05 0.0
01 11:35 NE 17 G 33 16.09 Overcast OVC004 13.9 13.9 100% 76.05 0.0
01 11:15 NE 19 G 35 16.09 Overcast OVC004 13.7 13.7 100% 76.05 0.0
01 10:55 NE 20 G 37 11.27 Light Rain OVC002 13.6 13.6 100% 76.02 0.0 0.23
01 10:35 E 22 G 37 2.41 Heavy Rain OVC002 13.3 13.3 100% 75.95 0.0 0.2
01 10:15 NE 11 11.27 Rain OVC002 13.5 13.5 100% 76.15 0.0 0.05
01 09:55 NE 20 G 30 8.05 Rain OVC002 13.5 13.5 100% 76.07 0.0 0.13 0.58
01 09:35 E 13 11.27 Light Drizzle OVC002 13.7 13.7 100% 76.12 0.0 0.1
01 09:15 E 17 G 28 6.44 Light Rain OVC002 13.7 13.7 100% 76.07 0.0 0.1
01 08:55 E 15 G 30 8.05 Heavy Rain OVC004 13.7 13.7 100% 76.25 0.0 0.46
01 08:35 NE 13 8.05 Rain OVC004 13.6 13.6 100% 76.25 0.0 0.3
01 08:15 NE 17 8.05 Heavy Rain OVC004 13.7 13.7 100% 76.17 0.0 0.13
01 07:55 NE 13 G 28 16.09 Light Rain OVC002 13.8 13.8 100% 76.2 0.0
01 07:35 NE 15 16.09 Overcast OVC002 14 14 100% 76.15 0.0
01 07:15 NE 15 11.27 Light Drizzle OVC002 14 14 100% 76.12 0.0
01 06:55 NE 15 G 26 11.27 Light Rain OVC002 14 14 15.6 14 100% 76.07 0.0 0.23 0.66
01 06:35 E 15 8.05 Light Rain OVC002 14 14 100% 76.05 0.0 0.15
01 06:15 NE 19 G 31 8.05 Heavy Rain OVC004 14 14 100% 76 0.0 0.1
01 06:00 NE 17 G 28 11.27 Heavy Rain OVC004 14.2 14.2 100% 76.07 0.0 0.03
01 03:55 N 13 16.09 Light Rain OVC002 14.7 14.7 100% 76.07 0.0 0.03 0.05
01 03:35 NE 17 6.44 Light Rain OVC002 14.9 14.9 100% 76.05 0.0 0.03
01 03:15 NE 20 G 31 1.21 Rain OVC002 15 15 100% 76.02 0.0
01 02:55 NE 13 3.22 Light Rain OVC002 15 15 100% 76.12 0.0 0.03
01 02:35 NE 13 4.83 Fog/Mist OVC002 15.1 15.1 100% 76.15 0.0
01 02:15 NE 13 8.05 Light Drizzle OVC002 15.1 15.1 100% 76.15 0.0
01 01:55 E 15 16.09 Light Rain OVC002 15.1 15.1 100% 76.1 0.0
01 01:35 NE 17 G 35 16.09 Thunderstorm Light Rain in Vicinity OVC002 15.1 15.1 100% 76.07 0.0
01 01:15 NE 15 G 33 16.09 Thunderstorm Light Rain in Vicinity OVC002 15.3 15.3 100% 76.05 0.0
01 00:55 NE 13 G 28 11.27 Overcast OVC002 15.6 15.6 100% 76.1 0.0 0.03
Date Time (cdt) Wind (kph) Vis. (km) Weather Sky Cond. Air Dwpt Max. Min. Relative Humidity Wind Chill (°C) Heat Index (°C) altimeter (cm) sea level (mb) 1 hr 3 hr 6 hr
6 hour
Temperature (ºC) Pressure Precipitation (cm)